createdAt,value
2023-04-26T00:00:31.210Z,99724.30
2023-04-26T00:03:15.028Z,99722.48
2023-04-26T00:05:43.940Z,99723.64
2023-04-26T00:08:12.836Z,99723.27
2023-04-26T00:10:41.527Z,99721.98
2023-04-26T00:13:10.171Z,99720.68
2023-04-26T00:15:38.535Z,99717.98
2023-04-26T00:18:07.248Z,99717.20
2023-04-26T00:20:36.070Z,99717.20
2023-04-26T00:23:04.860Z,99715.94
2023-04-26T00:25:33.341Z,99715.79
2023-04-26T00:28:02.234Z,99712.36
2023-04-26T00:30:30.778Z,99707.83
2023-04-26T00:32:59.068Z,99705.36
2023-04-26T00:35:27.888Z,99700.46
2023-04-26T00:37:56.473Z,99704.09
2023-04-26T00:40:25.152Z,99706.13
2023-04-26T00:43:00.493Z,99699.80
2023-04-26T00:45:29.432Z,99701.13
2023-04-26T00:48:01.908Z,99701.49
2023-04-26T00:50:32.089Z,99701.80
2023-04-26T00:53:03.040Z,99707.20
2023-04-26T00:55:31.719Z,99708.52
2023-04-26T00:58:00.909Z,99706.30
2023-04-26T01:00:30.124Z,99713.17
2023-04-26T01:02:59.411Z,99707.48
2023-04-26T01:05:27.856Z,99706.45
2023-04-26T01:07:56.896Z,99708.46
2023-04-26T01:10:26.037Z,99709.70
2023-04-26T01:12:55.204Z,99711.88
2023-04-26T01:15:25.105Z,99708.88
2023-04-26T01:17:53.844Z,99704.20
2023-04-26T01:20:22.592Z,99703.46
2023-04-26T01:22:51.364Z,99708.02
2023-04-26T01:25:20.568Z,99711.70
2023-04-26T01:27:48.913Z,99710.09
2023-04-26T01:30:17.861Z,99711.28
2023-04-26T01:32:46.676Z,99706.16
2023-04-26T01:35:15.232Z,99705.19
2023-04-26T01:37:44.718Z,99703.14
2023-04-26T01:40:14.013Z,99702.89
2023-04-26T01:42:42.262Z,99702.77
2023-04-26T01:45:12.006Z,99702.77
2023-04-26T01:47:59.202Z,99700.92
2023-04-26T01:50:28.012Z,99702.02
2023-04-26T01:52:56.491Z,99700.39
2023-04-26T01:55:24.979Z,99698.91
2023-04-26T01:57:53.663Z,99699.17
2023-04-26T02:00:22.388Z,99694.48
2023-04-26T02:02:51.067Z,99685.95
2023-04-26T02:05:20.004Z,99688.62
2023-04-26T02:07:48.654Z,99688.76
2023-04-26T02:10:17.551Z,99691.38
2023-04-26T02:12:46.608Z,99691.89
2023-04-26T02:15:15.611Z,99691.16
2023-04-26T02:17:44.166Z,99680.38
2023-04-26T02:20:12.986Z,99678.16
2023-04-26T02:22:41.353Z,99675.86
2023-04-26T02:25:10.036Z,99669.86
2023-04-26T02:27:38.831Z,99670.25
2023-04-26T02:30:07.924Z,99668.47
2023-04-26T02:32:36.977Z,99675.27
2023-04-26T02:35:06.291Z,99675.18
2023-04-26T02:37:34.910Z,99679.60
2023-04-26T02:40:05.738Z,99682.59
2023-04-26T02:42:34.434Z,99684.77
2023-04-26T02:45:02.912Z,99684.85
2023-04-26T02:47:31.853Z,99685.80
2023-04-26T02:50:00.693Z,99682.89
2023-04-26T02:52:29.386Z,99679.42
2023-04-26T02:54:58.071Z,99681.74
2023-04-26T02:57:28.461Z,99683.46
2023-04-26T02:59:57.340Z,99681.50
2023-04-26T03:02:26.243Z,99681.89
2023-04-26T03:04:56.809Z,99679.98
2023-04-26T03:07:25.495Z,99681.04
2023-04-26T03:09:53.976Z,99680.63
2023-04-26T03:12:22.565Z,99679.44
2023-04-26T03:14:51.054Z,99681.31
2023-04-26T03:17:20.651Z,99686.80
2023-04-26T03:19:49.338Z,99682.20
2023-04-26T03:22:18.844Z,99683.69
2023-04-26T03:24:47.941Z,99685.56
2023-04-26T03:27:16.921Z,99690.13
2023-04-26T03:29:45.723Z,99695.27
2023-04-26T03:32:14.323Z,99697.04
2023-04-26T03:34:43.829Z,99699.86
2023-04-26T03:37:13.636Z,99694.33
2023-04-26T03:39:43.648Z,99705.17
2023-04-26T03:42:12.450Z,99704.87
2023-04-26T03:44:41.140Z,99710.36
2023-04-26T03:47:09.617Z,99714.36
2023-04-26T03:49:39.125Z,99717.29
2023-04-26T03:52:07.493Z,99719.96
2023-04-26T03:54:36.495Z,99717.70
2023-04-26T03:57:05.065Z,99719.76
2023-04-26T03:59:34.265Z,99724.05
2023-04-26T04:02:02.794Z,99729.12
2023-04-26T04:04:32.809Z,99730.75
2023-04-26T04:07:02.380Z,99729.29
2023-04-26T04:09:30.859Z,99733.34
2023-04-26T04:11:59.646Z,99738.14
2023-04-26T04:14:28.525Z,99734.27
2023-04-26T04:16:57.540Z,99738.81
2023-04-26T04:19:26.640Z,99737.29
2023-04-26T04:21:55.188Z,99741.27
2023-04-26T04:24:24.002Z,99744.02
2023-04-26T04:26:53.747Z,99746.02
2023-04-26T04:29:23.018Z,99749.78
2023-04-26T04:31:51.453Z,99753.50
2023-04-26T04:34:20.249Z,99752.11
2023-04-26T04:36:49.383Z,99757.70
2023-04-26T04:39:17.660Z,99758.52
2023-04-26T04:41:50.546Z,99764.88
2023-04-26T04:44:20.871Z,99772.25
2023-04-26T04:46:49.674Z,99771.97
2023-04-26T04:49:19.374Z,99778.13
2023-04-26T04:51:48.285Z,99780.00
2023-04-26T04:54:18.345Z,99781.20
2023-04-26T04:56:48.575Z,99780.41
2023-04-26T04:59:18.526Z,99783.11
2023-04-26T05:01:47.767Z,99784.10
2023-04-26T05:04:17.660Z,99782.34
2023-04-26T05:06:46.532Z,99780.16
2023-04-26T05:09:14.912Z,99777.46
2023-04-26T05:11:43.563Z,99776.80
2023-04-26T05:14:12.798Z,99778.48
2023-04-26T05:16:41.665Z,99775.23
2023-04-26T05:19:10.375Z,99772.08
2023-04-26T05:21:39.268Z,99776.14
2023-04-26T05:24:08.158Z,99778.86
2023-04-26T05:26:37.771Z,99776.02
2023-04-26T05:29:30.620Z,99776.73
2023-04-26T05:32:09.947Z,99780.39
2023-04-26T05:34:42.129Z,99779.14
2023-04-26T05:37:13.986Z,99781.44
2023-04-26T05:39:42.577Z,99790.60
2023-04-26T05:42:10.925Z,99789.85
2023-04-26T05:44:39.957Z,99793.16
2023-04-26T05:47:08.741Z,99799.61
2023-04-26T05:49:37.224Z,99800.98
2023-04-26T05:52:06.110Z,99805.48
2023-04-26T05:54:34.501Z,99807.02
2023-04-26T05:57:04.249Z,99812.12
2023-04-26T06:04:25.362Z,99812.69
2023-04-26T06:08:04.941Z,99806.05
2023-04-26T06:11:36.583Z,99810.04
2023-04-26T06:15:04.768Z,99806.73
2023-04-26T06:18:33.971Z,99803.96
2023-04-26T06:22:02.150Z,99805.39
2023-04-26T06:25:30.808Z,99801.85
2023-04-26T06:32:31.942Z,99786.60
2023-04-26T06:36:00.448Z,99770.63
2023-04-26T06:39:34.070Z,99763.73
2023-04-26T06:43:02.198Z,99758.41
2023-04-26T06:46:33.442Z,99757.99
2023-04-26T06:49:02.435Z,99768.84
2023-04-26T06:51:31.632Z,99773.07
2023-04-26T06:54:01.339Z,99776.20
2023-04-26T06:56:29.832Z,99777.39
2023-04-26T06:59:04.089Z,99780.39
2023-04-26T07:01:34.321Z,99779.35
2023-04-26T07:04:14.514Z,99777.27
2023-04-26T07:06:43.318Z,99779.98
2023-04-26T07:09:12.711Z,99781.63
2023-04-26T07:11:41.518Z,99780.52
2023-04-26T07:14:12.179Z,99777.99
2023-04-26T07:16:41.351Z,99777.77
2023-04-26T07:19:11.467Z,99776.37
2023-04-26T07:21:39.839Z,99784.56
2023-04-26T07:24:08.738Z,99785.92
2023-04-26T07:26:37.419Z,99782.04
2023-04-26T07:29:08.361Z,99780.20
2023-04-26T07:31:37.047Z,99779.81
2023-04-26T07:34:05.841Z,99780.46
2023-04-26T07:36:34.124Z,99783.17
2023-04-26T07:39:02.674Z,99779.59
2023-04-26T07:41:31.898Z,99782.48
2023-04-26T07:44:00.418Z,99785.33
2023-04-26T07:46:28.968Z,99784.48
2023-04-26T07:48:57.861Z,99789.58
2023-04-26T07:51:27.784Z,99793.16
2023-04-26T07:53:56.262Z,99792.95
2023-04-26T07:56:25.127Z,99794.04
2023-04-26T07:58:53.748Z,99796.39
2023-04-26T08:01:22.437Z,99804.34
2023-04-26T08:03:51.678Z,99803.66
2023-04-26T08:06:20.661Z,99804.22
2023-04-26T08:08:50.998Z,99806.89
2023-04-26T08:11:19.811Z,99804.05
2023-04-26T08:13:48.373Z,99809.33
2023-04-26T08:16:17.038Z,99805.89
2023-04-26T08:18:46.909Z,99804.46
2023-04-26T08:21:15.924Z,99806.38
2023-04-26T08:23:44.559Z,99797.17
2023-04-26T08:26:13.288Z,99800.86
2023-04-26T08:28:41.770Z,99800.77
2023-04-26T08:31:10.494Z,99801.14
2023-04-26T08:33:39.657Z,99796.54
2023-04-26T08:36:08.555Z,99802.06
2023-04-26T08:38:37.251Z,99799.84
2023-04-26T08:41:06.334Z,99802.25
2023-04-26T08:43:38.020Z,99804.77
2023-04-26T08:46:11.782Z,99803.64
2023-04-26T08:48:41.141Z,99799.56
2023-04-26T08:51:13.200Z,99798.14
2023-04-26T08:53:43.367Z,99800.86
2023-04-26T08:56:13.550Z,99796.13
2023-04-26T08:58:42.409Z,99794.25
2023-04-26T09:01:14.485Z,99795.06
2023-04-26T09:03:43.167Z,99796.40
2023-04-26T09:06:12.561Z,99793.48
2023-04-26T09:08:42.700Z,99793.70
2023-04-26T09:11:11.177Z,99796.16
2023-04-26T09:13:39.868Z,99792.79
2023-04-26T09:16:09.063Z,99795.74
2023-04-26T09:18:51.066Z,99792.07
2023-04-26T09:22:29.580Z,99801.14
2023-04-26T09:25:55.811Z,99802.84
2023-04-26T09:29:24.308Z,99806.05
2023-04-26T09:32:56.541Z,99801.45
2023-04-26T09:36:28.063Z,99804.65
2023-04-26T09:39:56.125Z,99812.40
2023-04-26T09:43:27.901Z,99805.90
2023-04-26T09:46:56.261Z,99805.46
2023-04-26T09:49:27.528Z,99809.43
2023-04-26T09:52:06.983Z,99806.05
2023-04-26T09:54:50.028Z,99803.06
2023-04-26T09:57:20.076Z,99805.19
2023-04-26T09:59:50.906Z,99807.03
2023-04-26T10:02:22.992Z,99807.79
2023-04-26T10:04:54.994Z,99806.27
2023-04-26T10:07:25.683Z,99807.89
2023-04-26T10:09:55.802Z,99804.98
2023-04-26T10:12:24.729Z,99805.45
2023-04-26T10:14:53.306Z,99802.70
2023-04-26T10:17:22.232Z,99802.33
2023-04-26T10:19:56.747Z,99799.84
2023-04-26T10:22:28.869Z,99799.27
2023-04-26T10:24:57.277Z,99801.66
2023-04-26T10:27:44.805Z,99800.14
2023-04-26T10:30:14.869Z,99797.71
2023-04-26T10:32:52.534Z,99796.14
2023-04-26T10:35:22.030Z,99796.04
2023-04-26T10:38:02.817Z,99798.34
2023-04-26T10:40:41.804Z,99799.33
2023-04-26T10:43:10.318Z,99796.20
2023-04-26T10:45:40.641Z,99796.86
2023-04-26T10:48:22.548Z,99795.95
2023-04-26T10:51:01.572Z,99796.21
2023-04-26T10:53:34.047Z,99797.89
2023-04-26T10:56:02.579Z,99798.68
2023-04-26T10:58:35.311Z,99795.98
2023-04-26T11:01:08.696Z,99795.38
2023-04-26T11:03:38.321Z,99790.00
2023-04-26T11:06:09.876Z,99790.91
2023-04-26T11:08:38.666Z,99790.19
2023-04-26T11:11:13.852Z,99781.31
2023-04-26T11:13:44.001Z,99780.68
2023-04-26T11:16:15.104Z,99783.88
2023-04-26T11:18:45.799Z,99780.65
2023-04-26T11:21:18.232Z,99782.34
2023-04-26T11:23:56.193Z,99780.24
2023-04-26T11:26:33.193Z,99776.35
2023-04-26T11:29:01.857Z,99771.93
2023-04-26T11:31:31.230Z,99774.38
2023-04-26T11:34:06.109Z,99773.45
2023-04-26T11:36:38.267Z,99772.13
2023-04-26T11:39:07.565Z,99771.65
2023-04-26T11:41:36.208Z,99772.04
2023-04-26T11:44:04.770Z,99768.77
2023-04-26T11:46:33.794Z,99768.13
2023-04-26T11:49:02.426Z,99770.02
2023-04-26T11:51:32.444Z,99768.27
2023-04-26T11:54:02.219Z,99768.00
2023-04-26T11:56:31.343Z,99765.21
2023-04-26T11:59:00.122Z,99761.99
2023-04-26T12:01:30.322Z,99763.40
2023-04-26T12:04:00.368Z,99758.45
2023-04-26T12:06:46.653Z,99767.73
2023-04-26T12:09:15.261Z,99766.70
2023-04-26T12:11:59.741Z,99768.98
2023-04-26T12:14:35.372Z,99774.04
2023-04-26T12:17:06.555Z,99770.61
2023-04-26T12:19:37.384Z,99772.23
2023-04-26T12:22:09.735Z,99770.17
2023-04-26T12:24:38.835Z,99766.79
2023-04-26T12:27:07.856Z,99768.11
2023-04-26T12:29:36.520Z,99763.88
2023-04-26T12:32:05.489Z,99761.09
2023-04-26T12:34:34.086Z,99756.34
2023-04-26T12:37:02.672Z,99755.67
2023-04-26T12:39:31.572Z,99753.39
2023-04-26T12:42:00.054Z,99751.73
2023-04-26T12:44:28.633Z,99752.10
2023-04-26T12:46:57.261Z,99753.64
2023-04-26T12:49:25.928Z,99757.98
2023-04-26T12:51:54.419Z,99760.96
2023-04-26T12:54:22.981Z,99758.59
2023-04-26T12:56:51.663Z,99763.96
2023-04-26T12:59:20.451Z,99766.50
2023-04-26T13:01:48.944Z,99771.91
2023-04-26T13:04:17.773Z,99771.01
2023-04-26T13:06:47.351Z,99777.13
2023-04-26T13:09:15.814Z,99782.84
2023-04-26T13:11:44.196Z,99789.89
2023-04-26T13:15:12.399Z,99794.12
2023-04-26T13:18:45.788Z,99805.27
2023-04-26T13:22:13.911Z,99822.77
2023-04-26T13:25:42.254Z,99826.63
2023-04-26T13:29:10.445Z,99828.41
2023-04-26T13:32:38.793Z,99829.84
2023-04-26T13:36:12.537Z,99831.27
2023-04-26T13:39:40.824Z,99840.95
2023-04-26T13:43:09.110Z,99837.77
2023-04-26T13:46:42.611Z,99832.10
2023-04-26T13:49:11.097Z,99829.89
2023-04-26T13:51:40.298Z,99828.15
2023-04-26T13:54:11.849Z,99836.82
2023-04-26T13:56:40.227Z,99843.02
2023-04-26T13:59:08.917Z,99836.30
2023-04-26T14:01:37.731Z,99845.48
2023-04-26T14:04:06.855Z,99850.99
2023-04-26T14:06:36.311Z,99852.29
2023-04-26T14:09:08.781Z,99860.42
2023-04-26T14:11:37.471Z,99862.27
2023-04-26T14:14:06.057Z,99864.89
2023-04-26T14:16:34.591Z,99869.88
2023-04-26T14:19:03.757Z,99867.59
2023-04-26T14:21:32.471Z,99874.23
2023-04-26T14:24:01.217Z,99887.64
2023-04-26T14:27:29.517Z,99881.70
2023-04-26T14:29:57.888Z,99889.47
2023-04-26T14:32:27.062Z,99893.54
2023-04-26T14:34:55.462Z,99899.15
2023-04-26T14:37:24.303Z,99900.73
2023-04-26T14:39:53.062Z,99902.97
2023-04-26T14:42:21.730Z,99899.07
2023-04-26T14:44:50.159Z,99904.55
2023-04-26T14:47:18.589Z,99908.26
2023-04-26T14:49:47.019Z,99915.23
2023-04-26T14:52:16.583Z,99918.80
2023-04-26T14:54:45.233Z,99923.85
2023-04-26T14:57:13.657Z,99929.13
2023-04-26T15:00:41.719Z,99928.81
2023-04-26T15:04:15.117Z,99932.28
2023-04-26T15:07:43.397Z,99934.02
2023-04-26T15:11:11.825Z,99942.50
2023-04-26T15:14:40.115Z,99948.39
2023-04-26T15:18:08.716Z,99951.98
2023-04-26T15:24:39.830Z,99956.73
2023-04-26T15:28:07.880Z,99965.86
2023-04-26T15:31:19.574Z,99970.48
2023-04-26T15:33:48.571Z,99976.79
2023-04-26T15:36:20.070Z,99980.45
2023-04-26T15:38:57.067Z,99983.19
2023-04-26T15:46:21.983Z,99991.13
2023-04-26T15:49:06.748Z,99995.41
2023-04-26T15:51:35.643Z,100001.22
2023-04-26T15:54:04.440Z,100009.58
2023-04-26T15:56:32.810Z,100011.53
2023-04-26T15:59:01.294Z,100016.92
2023-04-26T16:02:29.469Z,100023.58
2023-04-26T16:04:58.482Z,100026.20
2023-04-26T16:07:27.158Z,100032.14
2023-04-26T16:09:55.867Z,100034.86
2023-04-26T16:13:24.103Z,100037.99
2023-04-26T16:16:52.286Z,100045.21
2023-04-26T16:20:25.523Z,100050.60
2023-04-26T16:22:54.003Z,100054.19
2023-04-26T16:25:22.709Z,100054.13
2023-04-26T16:28:28.407Z,100062.44
2023-04-26T16:30:57.082Z,100067.52
2023-04-26T16:34:02.281Z,100071.36
2023-04-26T16:36:31.726Z,100078.39
2023-04-26T16:39:00.152Z,100082.07
2023-04-26T16:41:28.737Z,100082.90
2023-04-26T16:43:57.226Z,100088.17
2023-04-26T16:46:25.651Z,100089.92
2023-04-26T16:48:57.254Z,100092.38
2023-04-26T16:52:25.393Z,100090.30
2023-04-26T16:55:57.690Z,100094.58
2023-04-26T16:59:25.806Z,100091.89
2023-04-26T17:02:53.883Z,100096.91
2023-04-26T17:05:22.356Z,100100.93
2023-04-26T17:08:55.554Z,100106.73
2023-04-26T17:12:23.735Z,100115.13
2023-04-26T17:15:52.163Z,100122.31
2023-04-26T17:19:20.323Z,100127.80
2023-04-26T17:22:48.695Z,100139.05
2023-04-26T17:26:16.874Z,100143.80
2023-04-26T17:29:45.341Z,100148.96
2023-04-26T17:33:15.067Z,100160.98
2023-04-26T17:36:26.164Z,100168.71
2023-04-26T17:39:51.785Z,100173.92
2023-04-26T17:47:12.827Z,100181.52
2023-04-26T17:49:41.416Z,100188.77
2023-04-26T17:53:09.768Z,100201.33
2023-04-26T17:56:40.755Z,100201.57
2023-04-26T17:59:49.985Z,100207.56
2023-04-26T18:02:18.980Z,100219.02
2023-04-26T18:04:47.890Z,100225.99
2023-04-26T18:07:16.701Z,100231.95
2023-04-26T18:09:45.151Z,100238.26
2023-04-26T18:12:13.762Z,100244.20
2023-04-26T18:14:45.690Z,100247.39
2023-04-26T18:17:15.428Z,100255.30
2023-04-26T18:19:44.197Z,100255.40
2023-04-26T18:22:12.877Z,100260.80
2023-04-26T18:24:41.664Z,100263.36
2023-04-26T18:27:12.537Z,100265.68
2023-04-26T18:29:44.400Z,100272.07
2023-04-26T18:32:13.375Z,100272.94
2023-04-26T18:34:41.863Z,100281.88
2023-04-26T18:37:10.732Z,100284.20
2023-04-26T18:39:39.168Z,100286.14
2023-04-26T18:42:07.714Z,100287.17
2023-04-26T18:44:36.417Z,100291.48
2023-04-26T18:47:05.988Z,100295.09
2023-04-26T18:49:40.315Z,100293.85
2023-04-26T18:52:10.124Z,100297.15
2023-04-26T18:54:39.224Z,100300.58
2023-04-26T18:57:07.738Z,100301.94
2023-04-26T18:59:39.050Z,100303.45
2023-04-26T19:06:59.393Z,100312.60
2023-04-26T19:10:27.763Z,100308.40
2023-04-26T19:14:01.586Z,100309.92
2023-04-26T19:17:31.653Z,100314.70
2023-04-26T19:21:00.001Z,100317.65
2023-04-26T19:24:30.176Z,100323.17
2023-04-26T19:27:58.813Z,100332.56
2023-04-26T19:31:34.601Z,100330.09
2023-04-26T19:35:03.061Z,100337.41
2023-04-26T19:38:31.190Z,100340.45
2023-04-26T19:45:57.202Z,100349.70
2023-04-26T19:49:02.063Z,100351.27
2023-04-26T19:51:32.052Z,100357.14
2023-04-26T19:54:00.841Z,100361.33
2023-04-26T19:56:29.738Z,100363.18
2023-04-26T19:58:58.160Z,100367.17
2023-04-26T20:01:27.009Z,100368.89
2023-04-26T20:03:55.976Z,100374.08
2023-04-26T20:06:24.689Z,100383.90
2023-04-26T20:08:53.326Z,100382.86
2023-04-26T20:11:22.677Z,100390.54
2023-04-26T20:13:51.903Z,100384.52
2023-04-26T20:16:20.255Z,100398.93
2023-04-26T20:18:48.631Z,100398.77
2023-04-26T20:21:17.213Z,100403.20
2023-04-26T20:23:45.998Z,100404.48
2023-04-26T20:26:14.486Z,100415.95
2023-04-26T20:28:42.968Z,100412.23
2023-04-26T20:31:12.061Z,100411.23
2023-04-26T20:33:40.338Z,100414.14
2023-04-26T20:36:09.432Z,100407.05
2023-04-26T20:38:38.396Z,100416.34
2023-04-26T20:41:06.803Z,100414.79
2023-04-26T20:43:35.602Z,100413.26
2023-04-26T20:46:04.647Z,100415.18
2023-04-26T20:48:33.281Z,100421.40
2023-04-26T20:51:02.274Z,100424.13
2023-04-26T20:53:31.372Z,100429.93
2023-04-26T20:55:59.958Z,100433.61
2023-04-26T20:58:30.075Z,100437.50
2023-04-26T21:00:59.723Z,100438.67
2023-04-26T21:04:28.124Z,100437.14
2023-04-26T21:07:56.423Z,100438.58
2023-04-26T21:11:24.453Z,100438.09
2023-04-26T21:14:56.402Z,100438.92
2023-04-26T21:18:24.615Z,100439.19
2023-04-26T21:21:52.823Z,100439.21
2023-04-26T21:25:26.363Z,100442.33
2023-04-26T21:28:54.630Z,100447.13
2023-04-26T21:32:22.678Z,100451.69
2023-04-26T21:35:51.023Z,100460.85
2023-04-26T21:39:19.205Z,100471.38
2023-04-26T21:43:03.854Z,100477.92
2023-04-26T21:46:33.311Z,100480.65
2023-04-26T21:49:02.491Z,100483.09
2023-04-26T21:51:31.694Z,100488.75
2023-04-26T21:54:00.126Z,100489.47
2023-04-26T21:56:28.750Z,100489.15
2023-04-26T21:58:57.131Z,100491.52
2023-04-26T22:01:25.852Z,100494.88
2023-04-26T22:03:54.542Z,100496.85
2023-04-26T22:06:23.195Z,100493.87
2023-04-26T22:08:51.872Z,100492.38
2023-04-26T22:11:20.298Z,100492.69
2023-04-26T22:13:48.835Z,100491.27
2023-04-26T22:16:17.340Z,100499.55
2023-04-26T22:18:45.822Z,100499.78
2023-04-26T22:21:14.280Z,100504.15
2023-04-26T22:23:42.660Z,100509.32
2023-04-26T22:26:11.448Z,100511.39
2023-04-26T22:28:39.984Z,100517.76
2023-04-26T22:31:08.312Z,100524.75
2023-04-26T22:33:37.068Z,100526.29
2023-04-26T22:36:06.295Z,100527.76
2023-04-26T22:38:34.576Z,100530.25
2023-04-26T22:41:04.695Z,100535.20
2023-04-26T22:43:34.147Z,100534.52
2023-04-26T22:46:02.511Z,100535.53
2023-04-26T22:48:31.173Z,100532.24
2023-04-26T22:51:00.201Z,100532.41
2023-04-26T22:53:28.639Z,100534.11
2023-04-26T22:55:57.011Z,100535.35
2023-04-26T22:58:25.611Z,100535.61
2023-04-26T23:00:54.136Z,100539.82
2023-04-26T23:03:23.163Z,100536.80
2023-04-26T23:05:52.076Z,100536.70
2023-04-26T23:08:20.493Z,100535.75
2023-04-26T23:10:49.421Z,100533.66
2023-04-26T23:13:17.938Z,100534.50
2023-04-26T23:15:46.514Z,100531.36
2023-04-26T23:18:16.531Z,100525.79
2023-04-26T23:20:45.014Z,100525.27
2023-04-26T23:23:13.495Z,100523.66
2023-04-26T23:25:42.422Z,100523.45
2023-04-26T23:28:11.091Z,100523.20
2023-04-26T23:30:39.557Z,100526.66
2023-04-26T23:33:08.100Z,100527.79
2023-04-26T23:35:41.615Z,100534.48
2023-04-26T23:38:10.161Z,100530.91
2023-04-26T23:40:38.706Z,100530.38
2023-04-26T23:43:07.495Z,100530.70
2023-04-26T23:45:36.181Z,100530.73
2023-04-26T23:48:05.402Z,100530.47
2023-04-26T23:50:33.757Z,100533.29
2023-04-26T23:53:02.137Z,100533.89
2023-04-26T23:55:31.030Z,100531.59
2023-04-26T23:57:59.513Z,100534.99
